createdAt,value
2018-05-05T00:03:31.523Z,4.68
2018-05-05T00:09:14.667Z,5.30
2018-05-05T00:12:02.149Z,5.43
2018-05-05T00:14:54.028Z,4.45
2018-05-05T00:17:45.832Z,5.50
2018-05-05T00:20:48.823Z,4.60
2018-05-05T00:23:36.460Z,4.90
2018-05-05T00:26:30.167Z,5.03
2018-05-05T00:29:25.274Z,4.60
2018-05-05T00:32:45.561Z,5.00
2018-05-05T00:35:43.539Z,4.47
2018-05-05T00:44:17.487Z,4.30
2018-05-05T00:50:28.776Z,5.07
2018-05-05T00:53:23.773Z,5.03
2018-05-05T01:11:17.903Z,5.22
2018-05-05T01:20:00.739Z,4.90
2018-05-05T01:22:50.586Z,4.95
2018-05-05T01:28:39.650Z,4.50
2018-05-05T01:31:26.857Z,4.75
2018-05-05T01:37:00.783Z,4.50
2018-05-05T01:39:54.853Z,4.53
2018-05-05T01:42:48.518Z,5.65
2018-05-05T01:45:39.997Z,5.00
2018-05-05T01:48:28.141Z,4.57
2018-05-05T01:51:26.753Z,5.18
2018-05-05T01:56:59.114Z,4.32
2018-05-05T02:02:46.689Z,5.20
2018-05-05T02:05:42.808Z,4.43
2018-05-05T02:08:28.355Z,4.85
2018-05-05T02:52:45.005Z,4.43
2018-05-05T02:58:24.440Z,4.60
2018-05-05T03:01:08.561Z,5.07
2018-05-05T03:03:58.525Z,5.28
2018-05-05T03:06:50.950Z,4.80
2018-05-05T03:09:37.761Z,4.90
2018-05-05T03:12:28.015Z,5.43
2018-05-05T03:15:24.192Z,5.20
2018-05-05T03:21:03.004Z,4.53
2018-05-05T03:23:47.750Z,4.85
2018-05-05T03:37:35.059Z,4.85
2018-05-05T03:43:15.731Z,5.15
2018-05-05T03:46:07.711Z,5.10
2018-05-05T03:48:48.926Z,5.40
2018-05-05T03:54:22.511Z,5.25
2018-05-05T04:00:09.307Z,5.18
2018-05-05T04:06:00.052Z,5.00
2018-05-05T04:08:36.179Z,5.45
2018-05-05T04:11:23.747Z,5.25
2018-05-05T04:14:01.402Z,5.35
2018-05-05T04:16:41.935Z,4.97
2018-05-05T04:19:14.730Z,5.82
2018-05-05T04:21:46.175Z,5.72
2018-05-05T04:24:22.912Z,5.55
2018-05-05T04:26:59.263Z,5.90
2018-05-05T04:29:33.940Z,5.90
2018-05-05T04:32:10.062Z,5.75
2018-05-05T04:34:40.528Z,5.55
2018-05-05T04:37:16.276Z,5.55
2018-05-05T04:40:01.984Z,6.05
2018-05-05T04:45:12.207Z,5.60
2018-05-05T04:47:46.071Z,6.00
2018-05-05T04:50:15.801Z,5.65
2018-05-05T04:52:45.225Z,6.15
2018-05-05T04:55:19.074Z,6.37
2018-05-05T04:57:52.149Z,6.00
2018-05-05T05:00:33.388Z,5.53
2018-05-05T05:03:06.755Z,5.80
2018-05-05T05:05:37.905Z,4.97
2018-05-05T05:08:08.152Z,5.55
2018-05-05T05:10:37.557Z,5.90
2018-05-05T05:13:07.447Z,5.80
2018-05-05T05:15:39.319Z,5.40
2018-05-05T05:18:10.343Z,6.00
2018-05-05T05:20:44.723Z,5.90
2018-05-05T05:23:14.393Z,5.90
2018-05-05T05:25:43.875Z,6.10
2018-05-05T05:28:15.616Z,5.62
2018-05-05T05:30:45.096Z,6.35
2018-05-05T05:33:14.463Z,4.85
2018-05-05T05:35:43.758Z,5.85
2018-05-05T05:38:13.846Z,5.72
2018-05-05T05:40:43.142Z,5.53
2018-05-05T05:43:12.418Z,6.00
2018-05-05T05:45:41.712Z,5.55
2018-05-05T05:48:11.013Z,6.00
2018-05-05T05:53:37.511Z,4.70
2018-05-05T05:56:15.435Z,5.28
2018-05-05T06:01:56.370Z,5.72
2018-05-05T06:04:26.175Z,5.10
2018-05-05T06:06:56.605Z,4.80
2018-05-05T06:09:54.336Z,4.80
2018-05-05T06:16:21.496Z,5.60
2018-05-05T06:18:57.894Z,4.57
2018-05-05T06:24:31.758Z,5.43
2018-05-05T06:27:43.346Z,4.60
2018-05-05T06:33:19.966Z,5.30
2018-05-05T06:35:55.188Z,5.60
2018-05-05T06:38:29.573Z,5.85
2018-05-05T06:41:12.718Z,5.15
2018-05-05T06:46:35.305Z,5.18
2018-05-05T06:49:04.997Z,5.30
2018-05-05T06:58:56.459Z,6.30
2018-05-05T07:01:32.207Z,4.90
2018-05-05T07:04:08.360Z,5.80
2018-05-05T07:06:41.175Z,6.40
2018-05-05T07:09:13.208Z,5.72
2018-05-05T07:11:44.239Z,6.32
2018-05-05T07:14:17.707Z,4.95
2018-05-05T07:16:48.723Z,6.00
2018-05-05T07:19:20.518Z,5.55
2018-05-05T07:21:55.216Z,5.97
2018-05-05T07:24:26.593Z,5.47
2018-05-05T07:33:00.142Z,5.70
2018-05-05T07:35:40.267Z,6.10
2018-05-05T07:47:16.776Z,6.30
2018-05-05T08:26:09.648Z,7.25
2018-05-05T08:38:06.571Z,7.00
2018-05-05T08:40:39.854Z,7.68
2018-05-05T08:43:12.837Z,7.75
2018-05-05T08:48:36.071Z,7.03
2018-05-05T08:51:14.200Z,7.12
2018-05-05T08:53:46.233Z,7.95
2018-05-05T08:56:16.522Z,8.18
2018-05-05T08:58:50.768Z,7.93
2018-05-05T09:01:22.485Z,7.87
2018-05-05T09:03:56.623Z,7.72
2018-05-05T09:06:29.641Z,7.53
2018-05-05T09:09:02.094Z,8.00
2018-05-05T09:11:33.940Z,8.98
2018-05-05T09:14:11.986Z,8.65
2018-05-05T09:16:43.370Z,8.30
2018-05-05T09:19:20.259Z,7.82
2018-05-05T09:21:51.861Z,8.05
2018-05-05T09:24:21.339Z,7.80
2018-05-05T09:26:54.224Z,8.32
2018-05-05T09:29:25.923Z,6.90
2018-05-05T09:31:56.009Z,7.68
2018-05-05T09:34:25.519Z,9.05
2018-05-05T09:36:54.926Z,9.20
2018-05-05T09:39:24.279Z,8.30
2018-05-05T09:41:53.776Z,9.52
2018-05-05T09:44:23.904Z,8.80
2018-05-05T09:46:55.469Z,8.02
2018-05-05T09:49:25.758Z,7.75
2018-05-05T09:51:55.072Z,8.90
2018-05-05T09:54:28.431Z,8.68
2018-05-05T09:56:57.733Z,8.48
2018-05-05T09:59:28.950Z,7.90
2018-05-05T10:01:58.324Z,7.95
2018-05-05T10:04:27.644Z,8.60
2018-05-05T10:06:57.082Z,8.07
2018-05-05T10:09:26.388Z,8.43
2018-05-05T10:11:56.447Z,8.63
2018-05-05T10:14:26.104Z,8.25
2018-05-05T10:16:56.167Z,8.00
2018-05-05T10:19:25.507Z,9.73
2018-05-05T10:21:54.754Z,8.73
2018-05-05T10:24:24.079Z,7.78
2018-05-05T10:26:53.384Z,8.98
2018-05-05T10:29:22.678Z,8.10
2018-05-05T10:31:51.989Z,9.63
2018-05-05T10:34:21.239Z,8.00
2018-05-05T10:36:50.566Z,8.05
2018-05-05T10:39:19.836Z,8.35
2018-05-05T10:41:49.137Z,8.13
2018-05-05T10:44:19.182Z,8.68
2018-05-05T10:46:48.560Z,8.88
2018-05-05T10:49:17.833Z,8.50
2018-05-05T10:51:47.135Z,7.90
2018-05-05T10:54:16.571Z,8.35
2018-05-05T10:56:45.894Z,8.10
2018-05-05T10:59:15.199Z,7.87
2018-05-05T11:01:44.563Z,7.53
2018-05-05T11:04:14.618Z,8.10
2018-05-05T11:06:43.993Z,7.60
2018-05-05T11:09:13.285Z,7.97
2018-05-05T11:11:42.691Z,8.45
2018-05-05T11:14:12.025Z,7.75
2018-05-05T11:16:41.351Z,8.00
2018-05-05T11:19:10.633Z,7.75
2018-05-05T11:21:39.947Z,7.65
2018-05-05T11:24:10.435Z,7.90
2018-05-05T11:26:40.489Z,8.75
2018-05-05T11:29:09.767Z,8.02
2018-05-05T11:31:39.119Z,7.03
2018-05-05T11:34:08.419Z,7.90
2018-05-05T11:36:37.705Z,7.12
2018-05-05T11:39:07.009Z,7.82
2018-05-05T11:41:36.301Z,8.23
2018-05-05T11:44:05.581Z,7.70
2018-05-05T11:46:34.875Z,8.10
2018-05-05T11:49:04.203Z,8.20
2018-05-05T11:51:33.514Z,7.95
2018-05-05T11:54:02.848Z,8.73
2018-05-05T11:56:32.942Z,7.53
2018-05-05T11:59:02.211Z,8.63
2018-05-05T12:01:31.565Z,7.35
2018-05-05T12:04:01.406Z,8.52
2018-05-05T12:06:30.708Z,7.32
2018-05-05T12:09:00.006Z,8.05
2018-05-05T12:11:29.289Z,7.90
2018-05-05T12:13:58.597Z,7.60
2018-05-05T12:16:27.889Z,7.62
2018-05-05T12:18:57.183Z,7.72
2018-05-05T12:21:27.244Z,8.27
2018-05-05T12:23:56.547Z,7.03
2018-05-05T12:26:25.833Z,6.90
2018-05-05T12:28:55.114Z,7.55
2018-05-05T12:31:24.407Z,7.45
2018-05-05T12:33:54.518Z,8.98
2018-05-05T12:36:24.568Z,7.90
2018-05-05T12:38:53.886Z,7.18
2018-05-05T12:41:23.173Z,7.75
2018-05-05T12:43:52.456Z,7.10
2018-05-05T12:46:25.169Z,6.85
2018-05-05T12:48:54.448Z,7.35
2018-05-05T12:51:23.766Z,7.87
2018-05-05T12:53:53.057Z,7.20
2018-05-05T12:56:22.356Z,7.53
2018-05-05T12:58:51.634Z,6.90
2018-05-05T13:01:20.955Z,7.80
2018-05-05T13:03:50.227Z,7.18
2018-05-05T13:06:20.476Z,6.80
2018-05-05T13:08:49.844Z,7.72
2018-05-05T13:11:19.900Z,7.60
2018-05-05T13:13:49.199Z,7.57
2018-05-05T13:16:18.552Z,7.18
2018-05-05T13:18:48.067Z,7.28
2018-05-05T13:21:18.123Z,6.32
2018-05-05T13:23:47.501Z,7.30
2018-05-05T13:26:16.713Z,6.90
2018-05-05T13:28:46.068Z,7.68
2018-05-05T13:31:15.367Z,7.47
2018-05-05T13:33:44.650Z,6.37
2018-05-05T13:36:13.954Z,6.85
2018-05-05T13:38:43.234Z,6.97
2018-05-05T13:41:13.291Z,6.10
2018-05-05T13:43:42.595Z,6.78
2018-05-05T13:46:12.001Z,6.93
2018-05-05T13:48:41.216Z,6.45
2018-05-05T13:51:11.251Z,6.70
2018-05-05T13:53:40.549Z,7.07
2018-05-05T13:56:09.845Z,7.07
2018-05-05T13:58:39.289Z,6.65
2018-05-05T14:04:12.600Z,6.53
2018-05-05T14:09:18.015Z,6.65
2018-05-05T14:11:47.309Z,6.15
2018-05-05T14:14:17.396Z,8.05
2018-05-05T14:16:46.694Z,7.10
2018-05-05T14:19:15.968Z,6.30
2018-05-05T14:21:45.255Z,5.97
2018-05-05T14:24:14.543Z,5.55
2018-05-05T14:26:43.873Z,6.28
2018-05-05T14:29:13.896Z,6.28
2018-05-05T14:31:43.980Z,5.85
2018-05-05T14:34:13.275Z,6.25
2018-05-05T14:36:42.671Z,5.90
2018-05-05T14:39:12.717Z,5.90
2018-05-05T14:41:42.109Z,6.12
2018-05-05T14:44:11.484Z,6.32
2018-05-05T14:46:41.632Z,6.03
2018-05-05T14:49:10.921Z,5.57
2018-05-05T14:51:40.280Z,5.35
2018-05-05T14:54:09.599Z,5.20
2018-05-05T14:56:39.020Z,6.30
2018-05-05T14:59:08.306Z,5.40
2018-05-05T15:01:38.474Z,5.53
2018-05-05T15:04:08.440Z,5.32
2018-05-05T15:06:37.738Z,5.15
2018-05-05T15:09:07.043Z,6.70
2018-05-05T15:11:36.337Z,5.20
2018-05-05T15:14:05.621Z,9.75
2018-05-05T15:16:34.927Z,8.15
2018-05-05T15:19:04.214Z,7.25
2018-05-05T15:21:33.505Z,6.45
2018-05-05T15:24:02.798Z,5.50
2018-05-05T15:26:32.090Z,6.12
2018-05-05T15:29:01.382Z,7.12
2018-05-05T15:31:30.667Z,5.45
2018-05-05T15:34:00.838Z,5.43
2018-05-05T15:36:30.066Z,5.97
2018-05-05T15:38:59.367Z,5.25
2018-05-05T15:41:29.315Z,5.68
2018-05-05T15:43:58.654Z,5.75
2018-05-05T15:46:27.942Z,5.55
2018-05-05T15:48:57.248Z,5.18
2018-05-05T15:51:26.571Z,5.47
2018-05-05T15:53:56.210Z,6.07
2018-05-05T15:56:25.511Z,5.28
2018-05-05T15:58:54.857Z,6.20
2018-05-05T16:01:24.913Z,6.18
2018-05-05T16:03:54.234Z,5.60
2018-05-05T16:06:23.524Z,5.65
2018-05-05T16:08:53.591Z,5.55
2018-05-05T16:11:22.967Z,6.12
2018-05-05T16:13:52.176Z,5.45
2018-05-05T16:16:21.467Z,6.15
2018-05-05T16:18:50.791Z,6.20
2018-05-05T16:21:20.063Z,6.10
2018-05-05T16:23:49.349Z,5.90
2018-05-05T16:26:19.397Z,5.60
2018-05-05T16:28:48.743Z,5.10
2018-05-05T16:31:18.018Z,4.85
2018-05-05T16:33:48.085Z,5.68
2018-05-05T16:36:18.142Z,5.28
2018-05-05T16:38:47.429Z,5.78
2018-05-05T16:41:16.723Z,4.87
2018-05-05T16:43:46.082Z,5.65
2018-05-05T16:46:16.141Z,5.10
2018-05-05T16:48:45.434Z,5.90
2018-05-05T16:51:15.492Z,5.53
2018-05-05T16:53:44.790Z,5.20
2018-05-05T16:56:14.095Z,5.55
2018-05-05T16:58:43.402Z,5.10
2018-05-05T17:01:12.679Z,5.10
2018-05-05T17:03:41.979Z,5.07
2018-05-05T17:06:11.267Z,5.90
2018-05-05T17:08:40.569Z,5.30
2018-05-05T17:11:09.850Z,5.53
2018-05-05T17:13:39.454Z,5.12
2018-05-05T17:16:09.502Z,7.00
2018-05-05T17:18:38.809Z,5.80
2018-05-05T17:21:08.087Z,6.50
2018-05-05T17:23:37.381Z,5.82
2018-05-05T17:26:07.441Z,5.50
2018-05-05T17:28:36.730Z,6.53
2018-05-05T17:31:06.010Z,5.90
2018-05-05T17:33:35.576Z,5.75
2018-05-05T17:36:04.858Z,6.15
2018-05-05T17:38:34.197Z,5.53
2018-05-05T17:41:04.275Z,5.47
2018-05-05T17:43:33.600Z,5.55
2018-05-05T17:46:02.840Z,5.62
2018-05-05T17:48:32.124Z,6.78
2018-05-05T17:51:02.186Z,5.12
2018-05-05T17:53:31.504Z,6.25
2018-05-05T17:56:00.793Z,5.18
2018-05-05T17:58:30.095Z,6.45
2018-05-05T18:00:59.386Z,6.70
2018-05-05T18:03:28.747Z,5.25
2018-05-05T18:05:58.805Z,8.00
2018-05-05T18:08:28.141Z,6.82
2018-05-05T18:10:57.415Z,7.07
2018-05-05T18:13:27.493Z,6.95
2018-05-05T18:15:56.776Z,5.65
2018-05-05T18:18:26.845Z,7.10
2018-05-05T18:20:56.120Z,6.20
2018-05-05T18:23:25.405Z,6.32
2018-05-05T18:25:55.458Z,7.37
2018-05-05T18:28:24.758Z,6.43
2018-05-05T18:30:54.067Z,9.60
2018-05-05T18:33:23.416Z,7.82
2018-05-05T18:35:53.503Z,8.48
2018-05-05T18:38:22.834Z,8.57
2018-05-05T18:40:53.625Z,9.20
2018-05-05T18:43:22.889Z,9.65
2018-05-05T18:45:52.174Z,8.82
2018-05-05T18:48:22.245Z,10.07
2018-05-05T18:50:51.539Z,9.32
2018-05-05T18:53:20.877Z,9.07
2018-05-05T18:55:50.148Z,8.82
2018-05-05T18:58:19.491Z,8.00
2018-05-05T19:00:48.746Z,7.90
2018-05-05T19:03:18.104Z,7.40
2018-05-05T19:05:48.165Z,7.93
2018-05-05T19:08:17.476Z,7.82
2018-05-05T19:10:46.761Z,7.07
2018-05-05T19:13:16.050Z,6.15
2018-05-05T19:15:46.129Z,7.75
2018-05-05T19:18:30.942Z,7.47
2018-05-05T19:21:04.811Z,8.15
2018-05-05T19:23:34.857Z,7.53
2018-05-05T19:26:11.171Z,6.50
2018-05-05T19:28:46.957Z,6.43
2018-05-05T19:31:18.001Z,5.87
2018-05-05T19:33:51.594Z,6.45
2018-05-05T19:36:22.566Z,6.87
2018-05-05T19:38:52.778Z,6.32
2018-05-05T19:41:24.764Z,6.03
2018-05-05T19:43:54.138Z,5.55
2018-05-05T19:46:28.892Z,5.40
2018-05-05T19:49:00.544Z,6.18
2018-05-05T19:51:29.955Z,5.93
2018-05-05T19:54:00.293Z,5.10
2018-05-05T19:56:29.697Z,5.65
2018-05-05T19:58:59.009Z,5.35
2018-05-05T20:01:29.282Z,6.72
2018-05-05T20:03:58.705Z,5.30
2018-05-05T20:06:28.185Z,5.35
2018-05-05T20:08:57.591Z,5.43
2018-05-05T20:11:28.671Z,6.82
2018-05-05T20:13:58.003Z,6.30
2018-05-05T20:16:28.176Z,6.82
2018-05-05T20:18:57.547Z,6.35
2018-05-05T20:21:27.593Z,5.80
2018-05-05T20:23:56.888Z,5.93
2018-05-05T20:26:26.211Z,6.80
2018-05-05T20:28:55.493Z,5.97
2018-05-05T20:31:24.796Z,6.68
2018-05-05T20:33:54.405Z,6.32
2018-05-05T20:36:23.715Z,6.30
2018-05-05T20:38:53.068Z,5.68
2018-05-05T20:41:22.372Z,6.78
2018-05-05T20:43:52.493Z,6.68
2018-05-05T20:46:22.526Z,6.30
2018-05-05T20:48:51.973Z,7.65
2018-05-05T20:51:21.257Z,8.25
2018-05-05T20:53:50.560Z,8.27
2018-05-05T20:56:20.017Z,7.70
2018-05-05T20:58:49.398Z,8.40
2018-05-05T21:01:18.776Z,11.60
2018-05-05T21:03:48.067Z,8.52
2018-05-05T21:06:17.351Z,8.63
2018-05-05T21:08:46.667Z,7.85
2018-05-05T21:11:15.978Z,8.35
2018-05-05T21:13:45.275Z,8.40
2018-05-05T21:16:14.585Z,8.93
2018-05-05T21:18:43.929Z,6.95
2018-05-05T21:21:13.217Z,6.90
2018-05-05T21:23:42.556Z,8.18
2018-05-05T21:26:14.165Z,7.22
2018-05-05T21:28:44.661Z,6.57
2018-05-05T21:31:15.031Z,7.65
2018-05-05T21:33:45.925Z,8.68
2018-05-05T21:36:15.264Z,9.45
2018-05-05T21:38:44.554Z,8.57
2018-05-05T21:41:13.835Z,7.90
2018-05-05T21:43:43.146Z,6.82
2018-05-05T21:46:12.437Z,7.62
2018-05-05T21:48:42.462Z,7.65
2018-05-05T21:51:11.787Z,8.10
2018-05-05T21:53:41.870Z,6.50
2018-05-05T21:56:11.259Z,7.10
2018-05-05T21:58:41.322Z,7.03
2018-05-05T22:01:11.368Z,6.25
2018-05-05T22:03:40.656Z,6.53
2018-05-05T22:06:09.969Z,6.00
2018-05-05T22:08:39.250Z,6.75
2018-05-05T22:11:09.349Z,6.80
2018-05-05T22:13:39.367Z,7.37
2018-05-05T22:16:08.680Z,5.95
2018-05-05T22:18:39.351Z,6.20
2018-05-05T22:21:08.666Z,6.55
2018-05-05T22:23:38.014Z,6.32
2018-05-05T22:26:08.082Z,6.00
2018-05-05T22:28:37.382Z,5.90
2018-05-05T22:31:06.688Z,6.00
2018-05-05T22:33:35.984Z,5.95
2018-05-05T22:36:05.266Z,6.35
2018-05-05T22:38:34.565Z,6.53
2018-05-05T22:41:03.877Z,5.55
2018-05-05T22:43:33.186Z,6.60
2018-05-05T22:46:02.565Z,6.40
2018-05-05T22:48:31.924Z,6.70
2018-05-05T22:51:01.216Z,5.95
2018-05-05T22:53:30.500Z,6.60
2018-05-05T22:55:59.806Z,6.75
2018-05-05T22:58:29.088Z,5.70
2018-05-05T23:00:58.376Z,6.00
2018-05-05T23:03:27.747Z,6.40
2018-05-05T23:05:56.951Z,6.70
2018-05-05T23:08:26.239Z,6.35
2018-05-05T23:10:57.171Z,6.25
2018-05-05T23:13:27.298Z,6.25
2018-05-05T23:15:57.342Z,7.28
2018-05-05T23:18:26.637Z,6.62
2018-05-05T23:20:55.939Z,6.93
2018-05-05T23:23:25.229Z,6.95
2018-05-05T23:25:54.521Z,7.15
2018-05-05T23:28:24.587Z,6.30
2018-05-05T23:30:53.908Z,7.10
2018-05-05T23:33:23.205Z,7.20
2018-05-05T23:35:52.508Z,6.10
2018-05-05T23:38:21.807Z,6.40
2018-05-05T23:40:51.132Z,6.95
2018-05-05T23:43:20.441Z,7.05
2018-05-05T23:45:50.523Z,7.07
2018-05-05T23:48:19.845Z,6.28
2018-05-05T23:50:49.214Z,7.35
2018-05-05T23:53:18.543Z,6.78
2018-05-05T23:55:47.829Z,6.40
2018-05-05T23:58:17.147Z,7.20
